createdAt,value
2023-03-06T00:00:29.747Z,6.53
2023-03-06T00:02:57.426Z,8.67
2023-03-06T00:05:24.807Z,8.07
2023-03-06T00:07:52.174Z,10.10
2023-03-06T00:10:20.927Z,10.13
2023-03-06T00:12:48.297Z,13.23
2023-03-06T00:15:15.525Z,10.93
2023-03-06T00:17:42.803Z,11.43
2023-03-06T00:20:11.800Z,12.60
2023-03-06T00:22:39.750Z,12.43
2023-03-06T00:25:07.550Z,12.50
2023-03-06T00:27:35.059Z,12.52
2023-03-06T00:30:02.293Z,15.05
2023-03-06T00:32:29.910Z,13.23
2023-03-06T00:34:57.289Z,14.15
2023-03-06T00:37:25.398Z,14.57
2023-03-06T00:39:52.732Z,13.17
2023-03-06T00:42:20.244Z,13.40
2023-03-06T00:44:47.823Z,13.00
2023-03-06T00:47:17.255Z,13.52
2023-03-06T00:49:44.964Z,13.77
2023-03-06T00:52:12.569Z,12.17
2023-03-06T00:54:40.252Z,15.27
2023-03-06T00:57:07.801Z,15.70
2023-03-06T00:59:35.197Z,13.88
2023-03-06T01:02:02.950Z,14.38
2023-03-06T01:04:30.548Z,14.30
2023-03-06T01:06:57.767Z,15.32
2023-03-06T01:09:25.185Z,16.55
2023-03-06T01:11:52.500Z,13.93
2023-03-06T01:14:19.859Z,16.70
2023-03-06T01:16:47.473Z,14.50
2023-03-06T01:19:15.172Z,17.40
2023-03-06T01:21:42.377Z,15.52
2023-03-06T01:24:09.779Z,15.25
2023-03-06T01:26:37.510Z,15.50
2023-03-06T01:29:04.723Z,16.93
2023-03-06T01:31:35.102Z,17.67
2023-03-06T01:34:02.630Z,21.08
2023-03-06T01:36:29.929Z,23.27
2023-03-06T01:38:57.502Z,19.38
2023-03-06T01:41:24.954Z,18.70
2023-03-06T01:43:52.323Z,18.98
2023-03-06T01:46:29.194Z,20.33
2023-03-06T01:49:05.652Z,18.30
2023-03-06T01:52:02.458Z,18.02
2023-03-06T01:54:32.242Z,18.57
2023-03-06T01:57:08.064Z,18.73
2023-03-06T01:59:36.104Z,19.52
2023-03-06T02:02:04.620Z,19.73
2023-03-06T02:04:32.178Z,17.77
2023-03-06T02:07:04.853Z,21.23
2023-03-06T02:09:33.783Z,17.25
2023-03-06T02:12:01.877Z,18.00
2023-03-06T02:14:30.108Z,18.25
2023-03-06T02:16:57.335Z,16.58
2023-03-06T02:19:43.447Z,15.80
2023-03-06T02:22:10.888Z,17.67
2023-03-06T02:24:38.199Z,18.05
2023-03-06T02:27:06.301Z,21.42
2023-03-06T02:29:33.809Z,19.08
2023-03-06T02:32:01.161Z,20.03
2023-03-06T02:34:28.499Z,19.42
2023-03-06T02:37:00.870Z,18.98
2023-03-06T02:39:30.435Z,16.17
2023-03-06T02:41:57.794Z,17.05
2023-03-06T02:44:26.674Z,17.43
2023-03-06T02:46:53.841Z,18.40
2023-03-06T02:49:21.149Z,18.23
2023-03-06T02:51:48.567Z,17.92
2023-03-06T02:54:18.448Z,16.95
2023-03-06T02:56:46.229Z,18.83
2023-03-06T02:59:13.644Z,17.73
2023-03-06T03:01:40.956Z,17.88
2023-03-06T03:04:08.558Z,16.33
2023-03-06T03:06:35.845Z,18.75
2023-03-06T03:09:03.216Z,16.43
2023-03-06T03:11:30.512Z,16.33
2023-03-06T03:13:57.818Z,16.40
2023-03-06T03:16:25.131Z,20.08
2023-03-06T03:18:52.490Z,16.17
2023-03-06T03:21:19.637Z,17.63
2023-03-06T03:23:47.032Z,15.00
2023-03-06T03:26:15.815Z,17.83
2023-03-06T03:28:43.072Z,17.88
2023-03-06T03:31:11.320Z,15.00
2023-03-06T03:33:38.781Z,15.13
2023-03-06T03:36:07.248Z,14.30
2023-03-06T03:38:35.022Z,17.92
2023-03-06T03:41:02.418Z,18.83
2023-03-06T03:43:29.707Z,16.08
2023-03-06T03:45:56.916Z,20.67
2023-03-06T03:48:24.069Z,16.73
2023-03-06T03:50:51.265Z,17.30
2023-03-06T03:53:18.653Z,15.48
2023-03-06T03:55:47.315Z,16.63
2023-03-06T03:58:14.630Z,18.97
2023-03-06T04:00:41.956Z,19.58
2023-03-06T04:03:09.255Z,17.83
2023-03-06T04:05:36.798Z,21.60
2023-03-06T04:08:04.350Z,18.45
2023-03-06T04:10:31.878Z,17.13
2023-03-06T04:12:59.210Z,20.58
2023-03-06T04:15:26.527Z,20.17
2023-03-06T04:17:54.012Z,16.73
2023-03-06T04:20:21.298Z,16.98
2023-03-06T04:22:48.726Z,17.67
2023-03-06T04:25:16.172Z,16.65
2023-03-06T04:27:43.358Z,15.45
2023-03-06T04:30:11.070Z,17.05
2023-03-06T04:32:38.381Z,14.45
2023-03-06T04:35:06.111Z,13.23
2023-03-06T04:37:33.324Z,15.13
2023-03-06T04:40:00.542Z,14.23
2023-03-06T04:42:28.035Z,13.82
2023-03-06T04:44:55.348Z,14.45
2023-03-06T04:47:22.613Z,12.75
2023-03-06T04:49:49.777Z,12.90
2023-03-06T04:52:16.965Z,12.55
2023-03-06T04:54:46.156Z,11.70
2023-03-06T04:57:14.226Z,12.10
2023-03-06T04:59:41.476Z,8.43
2023-03-06T05:02:08.797Z,8.90
2023-03-06T05:04:36.153Z,8.52
2023-03-06T05:07:03.466Z,8.32
2023-03-06T05:09:30.776Z,10.40
2023-03-06T05:11:58.231Z,10.53
2023-03-06T05:14:25.426Z,9.88
2023-03-06T05:16:52.642Z,10.95
2023-03-06T05:19:19.943Z,9.50
2023-03-06T05:21:47.132Z,10.70
2023-03-06T05:24:14.426Z,11.10
2023-03-06T05:26:41.819Z,10.18
2023-03-06T05:29:09.024Z,12.57
2023-03-06T05:31:36.233Z,10.75
2023-03-06T05:34:03.460Z,11.43
2023-03-06T05:36:30.715Z,11.13
2023-03-06T05:38:57.929Z,11.68
2023-03-06T05:41:25.185Z,12.32
2023-03-06T05:43:54.669Z,14.25
2023-03-06T05:46:21.950Z,13.20
2023-03-06T05:48:49.323Z,13.47
2023-03-06T05:51:16.448Z,12.82
2023-03-06T05:53:43.610Z,10.60
2023-03-06T05:56:10.943Z,11.32
2023-03-06T05:58:38.115Z,9.75
2023-03-06T06:01:13.299Z,12.53
2023-03-06T06:03:40.764Z,11.32
2023-03-06T06:06:12.365Z,12.13
2023-03-06T06:08:39.983Z,12.52
2023-03-06T06:11:11.856Z,13.38
2023-03-06T06:13:39.238Z,13.07
2023-03-06T06:16:16.276Z,15.38
2023-03-06T06:18:44.169Z,11.90
2023-03-06T06:21:12.100Z,14.45
2023-03-06T06:23:39.374Z,11.95
2023-03-06T06:26:07.565Z,12.10
2023-03-06T06:28:35.270Z,11.52
2023-03-06T06:31:07.759Z,11.32
2023-03-06T06:33:34.965Z,12.90
2023-03-06T06:36:02.264Z,12.45
2023-03-06T06:38:29.428Z,10.80
2023-03-06T06:41:30.746Z,10.98
2023-03-06T06:43:43.878Z,12.88
2023-03-06T06:46:44.619Z,13.40
2023-03-06T06:49:00.151Z,10.20
2023-03-06T06:51:27.535Z,12.63
2023-03-06T06:53:54.955Z,12.35
2023-03-06T06:56:22.293Z,18.33
2023-03-06T06:58:49.611Z,7.40
2023-03-06T07:01:16.917Z,14.13
2023-03-06T07:03:44.254Z,7.57
2023-03-06T07:06:11.607Z,5.65
2023-03-06T07:08:38.800Z,5.07
2023-03-06T07:11:07.848Z,3.47
2023-03-06T07:13:35.283Z,4.32
2023-03-06T07:16:02.640Z,4.10
2023-03-06T07:18:30.138Z,3.85
2023-03-06T07:20:59.239Z,4.75
2023-03-06T07:23:27.757Z,4.10
2023-03-06T07:25:55.468Z,3.60
2023-03-06T07:28:22.679Z,4.63
2023-03-06T07:30:50.103Z,4.82
2023-03-06T07:33:17.726Z,3.53
2023-03-06T07:35:45.169Z,2.30
2023-03-06T07:38:12.584Z,3.25
2023-03-06T07:40:39.992Z,3.70
2023-03-06T07:43:18.802Z,4.80
2023-03-06T07:45:47.168Z,4.15
2023-03-06T07:48:15.103Z,3.05
2023-03-06T07:50:43.359Z,4.22
2023-03-06T07:53:11.575Z,3.17
2023-03-06T07:55:41.346Z,4.18
2023-03-06T07:58:08.545Z,4.30
2023-03-06T08:00:35.857Z,3.85
2023-03-06T08:03:03.098Z,9.80
2023-03-06T08:05:30.298Z,29.25
2023-03-06T08:07:57.506Z,9.48
2023-03-06T08:10:24.679Z,5.28
2023-03-06T08:12:52.007Z,3.63
2023-03-06T08:15:19.211Z,4.18
2023-03-06T08:17:46.692Z,4.60
2023-03-06T08:20:14.614Z,6.30
2023-03-06T08:22:41.999Z,4.20
2023-03-06T08:25:09.714Z,3.30
2023-03-06T08:27:37.078Z,3.03
2023-03-06T08:30:04.607Z,3.60
2023-03-06T08:32:31.980Z,3.65
2023-03-06T08:34:59.176Z,6.00
2023-03-06T08:37:26.526Z,2.92
2023-03-06T08:39:53.749Z,2.70
2023-03-06T08:42:21.055Z,3.30
2023-03-06T08:44:48.258Z,1.63
2023-03-06T08:47:15.630Z,3.20
2023-03-06T08:49:42.998Z,2.88
2023-03-06T08:52:11.305Z,3.55
2023-03-06T08:54:39.383Z,2.90
2023-03-06T08:57:07.195Z,5.15
2023-03-06T08:59:34.501Z,3.70
2023-03-06T09:02:01.989Z,3.13
2023-03-06T09:04:31.530Z,2.25
2023-03-06T09:06:58.974Z,2.22
2023-03-06T09:09:26.266Z,1.70
2023-03-06T09:11:53.864Z,1.63
2023-03-06T09:14:21.206Z,1.67
2023-03-06T09:16:48.501Z,2.47
2023-03-06T09:19:15.717Z,2.28
2023-03-06T09:21:43.183Z,2.42
2023-03-06T09:24:10.542Z,2.15
2023-03-06T09:26:46.321Z,3.67
2023-03-06T09:29:16.250Z,1.88
2023-03-06T09:31:43.779Z,3.60
2023-03-06T09:34:10.975Z,2.80
2023-03-06T09:36:54.890Z,1.80
2023-03-06T09:39:24.030Z,2.40
2023-03-06T09:41:51.771Z,2.63
2023-03-06T09:44:20.915Z,3.20
2023-03-06T09:46:48.039Z,1.23
2023-03-06T09:49:25.412Z,1.48
2023-03-06T09:52:01.868Z,2.00
2023-03-06T09:54:36.203Z,3.75
2023-03-06T09:57:03.730Z,6.22
2023-03-06T09:59:31.405Z,2.42
2023-03-06T10:02:12.157Z,1.90
2023-03-06T10:04:44.624Z,1.48
2023-03-06T10:07:47.521Z,0.85
2023-03-06T10:10:28.225Z,1.67
2023-03-06T10:13:04.114Z,1.67
2023-03-06T10:15:36.395Z,1.70
2023-03-06T10:18:04.953Z,1.02
2023-03-06T10:20:38.508Z,1.40
2023-03-06T10:23:22.081Z,2.85
2023-03-06T10:25:50.075Z,1.48
2023-03-06T10:28:19.486Z,2.08
2023-03-06T10:30:53.231Z,2.45
2023-03-06T10:33:38.916Z,2.88
2023-03-06T10:36:06.546Z,3.08
2023-03-06T10:38:38.537Z,3.42
2023-03-06T10:41:17.318Z,1.65
2023-03-06T10:44:03.328Z,1.73
2023-03-06T10:46:32.481Z,3.22
2023-03-06T10:49:00.958Z,2.45
2023-03-06T10:51:29.149Z,3.70
2023-03-06T10:53:56.419Z,2.65
2023-03-06T10:56:28.458Z,2.58
2023-03-06T10:59:30.881Z,2.58
2023-03-06T11:01:59.691Z,2.05
2023-03-06T11:04:27.029Z,4.22
2023-03-06T11:07:13.748Z,2.45
2023-03-06T11:09:41.611Z,4.00
2023-03-06T11:12:21.206Z,2.42
2023-03-06T11:14:48.538Z,4.70
2023-03-06T11:17:34.486Z,2.53
2023-03-06T11:20:16.309Z,2.03
2023-03-06T11:22:49.149Z,5.57
2023-03-06T11:25:17.504Z,3.65
2023-03-06T11:27:46.198Z,3.28
2023-03-06T11:30:39.908Z,2.67
2023-03-06T11:33:15.398Z,3.35
2023-03-06T11:36:01.611Z,3.67
2023-03-06T11:38:49.238Z,2.97
2023-03-06T11:41:28.856Z,2.80
2023-03-06T11:44:02.260Z,2.93
2023-03-06T11:46:35.199Z,3.35
2023-03-06T11:49:07.183Z,2.83
2023-03-06T11:51:36.624Z,3.90
2023-03-06T11:54:03.911Z,3.50
2023-03-06T11:56:57.541Z,4.70
2023-03-06T11:59:43.679Z,2.85
2023-03-06T12:02:20.305Z,3.65
2023-03-06T12:04:51.025Z,5.43
2023-03-06T12:07:27.290Z,3.33
2023-03-06T12:09:54.574Z,4.70
2023-03-06T12:12:29.038Z,3.05
2023-03-06T12:14:56.244Z,3.75
2023-03-06T12:17:23.659Z,8.32
2023-03-06T12:20:06.691Z,4.80
2023-03-06T12:22:33.989Z,4.13
2023-03-06T12:25:04.208Z,4.75
2023-03-06T12:27:31.304Z,4.20
2023-03-06T12:30:10.238Z,4.40
2023-03-06T12:32:53.079Z,5.47
2023-03-06T12:35:32.040Z,5.15
2023-03-06T12:38:05.501Z,7.15
2023-03-06T12:40:38.761Z,8.52
2023-03-06T12:43:34.131Z,6.03
2023-03-06T12:46:10.504Z,6.40
2023-03-06T12:48:38.011Z,7.53
2023-03-06T12:51:07.277Z,6.50
2023-03-06T12:53:35.559Z,6.75
2023-03-06T12:56:03.391Z,8.20
2023-03-06T12:58:30.689Z,6.97
2023-03-06T13:01:03.551Z,7.50
2023-03-06T13:03:48.538Z,8.43
2023-03-06T13:06:32.522Z,9.80
2023-03-06T13:09:18.565Z,9.40
2023-03-06T13:11:46.746Z,8.57
2023-03-06T13:14:25.449Z,9.00
2023-03-06T13:16:52.713Z,8.82
2023-03-06T13:19:27.129Z,8.43
2023-03-06T13:21:57.628Z,8.75
2023-03-06T13:24:26.124Z,13.07
2023-03-06T13:26:57.817Z,10.20
2023-03-06T13:29:37.384Z,9.82
2023-03-06T13:32:04.691Z,10.25
2023-03-06T13:34:31.928Z,10.50
2023-03-06T13:37:14.599Z,9.98
2023-03-06T13:40:00.197Z,12.50
2023-03-06T13:42:38.147Z,9.75
2023-03-06T13:45:08.675Z,12.20
2023-03-06T13:48:02.824Z,9.88
2023-03-06T13:50:32.075Z,9.45
2023-03-06T13:52:59.398Z,7.95
2023-03-06T13:55:26.594Z,9.43
2023-03-06T13:58:03.071Z,8.27
2023-03-06T14:00:53.235Z,9.75
2023-03-06T14:03:41.207Z,7.55
2023-03-06T14:06:27.403Z,7.83
2023-03-06T14:08:55.195Z,9.68
2023-03-06T14:11:22.726Z,9.27
2023-03-06T14:13:51.649Z,9.88
2023-03-06T14:16:21.741Z,8.70
2023-03-06T14:18:50.508Z,7.03
2023-03-06T14:21:27.059Z,6.95
2023-03-06T14:24:02.249Z,7.10
2023-03-06T14:26:49.806Z,9.32
2023-03-06T14:29:24.087Z,7.22
2023-03-06T14:31:52.818Z,8.40
2023-03-06T14:34:31.835Z,8.32
2023-03-06T14:37:01.547Z,6.45
2023-03-06T14:39:33.286Z,9.20
2023-03-06T14:42:08.336Z,9.15
2023-03-06T14:44:35.703Z,6.30
2023-03-06T14:47:26.468Z,7.60
2023-03-06T14:50:12.644Z,8.25
2023-03-06T14:52:39.996Z,9.25
2023-03-06T14:55:12.471Z,7.43
2023-03-06T14:57:39.821Z,9.60
2023-03-06T15:00:07.520Z,7.40
2023-03-06T15:02:36.111Z,6.43
2023-03-06T15:05:13.972Z,7.85
2023-03-06T15:07:42.891Z,7.10
2023-03-06T15:10:20.771Z,7.53
2023-03-06T15:12:48.187Z,6.70
2023-03-06T15:15:17.765Z,8.40
2023-03-06T15:17:45.985Z,8.48
2023-03-06T15:20:32.451Z,7.57
2023-03-06T15:22:59.671Z,6.53
2023-03-06T15:25:28.164Z,6.85
2023-03-06T15:27:57.198Z,7.25
2023-03-06T15:30:26.547Z,5.85
2023-03-06T15:33:09.380Z,6.75
2023-03-06T15:35:38.216Z,10.27
2023-03-06T15:38:23.176Z,9.98
2023-03-06T15:40:58.285Z,10.23
2023-03-06T15:43:25.683Z,12.40
2023-03-06T15:45:57.115Z,10.27
2023-03-06T15:48:24.388Z,11.63
2023-03-06T15:50:51.855Z,13.20
2023-03-06T15:53:20.373Z,13.05
2023-03-06T15:55:47.696Z,11.52
2023-03-06T15:58:17.208Z,12.30
2023-03-06T16:00:44.630Z,12.90
2023-03-06T16:03:12.390Z,13.23
2023-03-06T16:05:39.644Z,16.77
2023-03-06T16:08:07.491Z,14.63
2023-03-06T16:10:36.998Z,16.40
2023-03-06T16:13:06.450Z,18.65
2023-03-06T16:15:37.062Z,13.55
2023-03-06T16:18:04.856Z,16.27
2023-03-06T16:20:32.938Z,15.38
2023-03-06T16:23:00.130Z,15.27
2023-03-06T16:25:28.550Z,16.17
2023-03-06T16:28:01.057Z,20.80
2023-03-06T16:30:32.368Z,18.98
2023-03-06T16:33:00.084Z,17.95
2023-03-06T16:35:27.521Z,17.30
2023-03-06T16:37:54.792Z,17.52
2023-03-06T16:40:22.418Z,19.63
2023-03-06T16:42:54.801Z,17.58
2023-03-06T16:45:23.073Z,20.73
2023-03-06T16:47:50.480Z,17.00
2023-03-06T16:50:22.113Z,17.67
2023-03-06T16:52:49.605Z,16.58
2023-03-06T16:55:16.917Z,16.85
2023-03-06T16:57:44.092Z,16.13
2023-03-06T17:00:11.834Z,19.00
2023-03-06T17:02:39.439Z,15.93
2023-03-06T17:05:08.271Z,16.15
2023-03-06T17:07:36.107Z,15.85
2023-03-06T17:10:04.617Z,17.60
2023-03-06T17:12:31.927Z,20.95
2023-03-06T17:14:59.314Z,16.40
2023-03-06T17:17:26.995Z,17.08
2023-03-06T17:19:54.404Z,15.38
2023-03-06T17:22:22.298Z,13.43
2023-03-06T17:24:50.988Z,15.85
2023-03-06T17:27:19.082Z,13.40
2023-03-06T17:29:46.327Z,14.60
2023-03-06T17:32:14.453Z,18.27
2023-03-06T17:34:42.012Z,17.17
2023-03-06T17:37:09.407Z,17.58
2023-03-06T17:39:37.678Z,17.27
2023-03-06T17:42:05.532Z,19.08
2023-03-06T17:44:34.343Z,13.82
2023-03-06T17:47:01.585Z,19.80
2023-03-06T17:49:28.986Z,15.20
2023-03-06T17:51:57.951Z,15.27
2023-03-06T17:54:26.409Z,17.42
2023-03-06T17:56:54.008Z,17.13
2023-03-06T17:59:21.230Z,15.60
2023-03-06T18:01:48.500Z,18.65
2023-03-06T18:04:16.837Z,17.58
2023-03-06T18:06:44.004Z,20.35
2023-03-06T18:09:11.343Z,21.60
2023-03-06T18:11:38.598Z,19.77
2023-03-06T18:14:05.901Z,20.58
2023-03-06T18:16:33.495Z,19.88
2023-03-06T18:19:00.968Z,25.35
2023-03-06T18:21:28.452Z,23.15
2023-03-06T18:23:55.923Z,17.30
2023-03-06T18:26:24.670Z,19.73
2023-03-06T18:28:56.018Z,21.05
2023-03-06T18:31:27.894Z,19.20
2023-03-06T18:33:58.491Z,15.18
2023-03-06T18:36:26.802Z,20.70
2023-03-06T18:38:54.163Z,20.20
2023-03-06T18:41:21.401Z,19.05
2023-03-06T18:43:52.538Z,16.42
2023-03-06T18:46:19.767Z,19.15
2023-03-06T18:48:47.369Z,21.33
2023-03-06T18:51:15.100Z,17.73
2023-03-06T18:53:44.095Z,14.85
2023-03-06T18:56:16.732Z,20.65
2023-03-06T18:58:44.547Z,21.08
2023-03-06T19:01:12.345Z,19.98
2023-03-06T19:03:39.760Z,20.48
2023-03-06T19:06:08.446Z,22.98
2023-03-06T19:08:36.141Z,22.70
2023-03-06T19:11:14.635Z,19.80
2023-03-06T19:13:42.019Z,23.27
2023-03-06T19:16:09.823Z,23.65
2023-03-06T19:18:37.058Z,21.35
2023-03-06T19:21:11.953Z,19.67
2023-03-06T19:23:39.534Z,23.08
2023-03-06T19:26:07.657Z,22.65
2023-03-06T19:28:35.671Z,23.85
2023-03-06T19:31:10.297Z,27.38
2023-03-06T19:33:38.114Z,25.40
2023-03-06T19:36:06.418Z,23.63
2023-03-06T19:38:33.616Z,25.52
2023-03-06T19:41:01.221Z,28.65
2023-03-06T19:43:28.988Z,27.63
2023-03-06T19:45:56.676Z,23.30
2023-03-06T19:48:24.454Z,28.80
2023-03-06T19:50:51.758Z,27.52
2023-03-06T19:53:19.110Z,23.92
2023-03-06T19:55:46.394Z,26.48
2023-03-06T19:58:13.723Z,30.10
2023-03-06T20:00:41.648Z,28.77
2023-03-06T20:03:09.064Z,26.92
2023-03-06T20:05:36.377Z,27.20
2023-03-06T20:08:03.700Z,24.75
2023-03-06T20:10:30.948Z,25.48
2023-03-06T20:12:58.481Z,27.95
2023-03-06T20:15:28.207Z,29.02
2023-03-06T20:17:56.789Z,23.95
2023-03-06T20:20:24.075Z,24.35
2023-03-06T20:22:51.374Z,29.23
2023-03-06T20:25:19.174Z,28.63
2023-03-06T20:27:46.416Z,27.15
2023-03-06T20:30:13.723Z,20.15
2023-03-06T20:32:41.060Z,23.63
2023-03-06T20:35:08.586Z,25.40
2023-03-06T20:37:35.920Z,22.35
2023-03-06T20:40:03.577Z,26.15
2023-03-06T20:42:30.894Z,27.75
2023-03-06T20:44:58.189Z,26.95
2023-03-06T20:47:25.536Z,28.30
2023-03-06T20:49:52.741Z,26.48
2023-03-06T20:52:20.075Z,23.55
2023-03-06T20:54:47.325Z,24.20
2023-03-06T20:57:14.665Z,28.05
2023-03-06T20:59:42.050Z,29.13
2023-03-06T21:02:10.368Z,26.77
2023-03-06T21:04:41.108Z,28.13
2023-03-06T21:07:08.368Z,28.30
2023-03-06T21:09:37.749Z,27.20
2023-03-06T21:12:05.470Z,27.65
2023-03-06T21:14:32.954Z,29.80
2023-03-06T21:17:01.417Z,23.02
2023-03-06T21:19:28.662Z,29.25
2023-03-06T21:21:55.985Z,30.88
2023-03-06T21:24:23.156Z,26.95
2023-03-06T21:26:51.308Z,17.27
2023-03-06T21:29:18.566Z,20.20
2023-03-06T21:31:45.943Z,23.50
2023-03-06T21:34:13.447Z,24.02
2023-03-06T21:36:40.812Z,23.50
2023-03-06T21:39:08.230Z,19.55
2023-03-06T21:41:35.606Z,20.00
2023-03-06T21:44:03.837Z,18.58
2023-03-06T21:46:31.547Z,19.95
2023-03-06T21:48:58.848Z,17.52
2023-03-06T21:51:26.740Z,16.52
2023-03-06T21:53:54.474Z,13.77
2023-03-06T21:56:23.077Z,12.10
2023-03-06T21:58:50.287Z,11.15
2023-03-06T22:01:22.219Z,10.10
2023-03-06T22:03:49.495Z,9.02
2023-03-06T22:06:21.918Z,9.40
2023-03-06T22:08:49.473Z,12.02
2023-03-06T22:11:18.403Z,10.48
2023-03-06T22:13:46.213Z,9.55
2023-03-06T22:16:13.698Z,9.25
2023-03-06T22:18:41.227Z,10.77
2023-03-06T22:21:09.486Z,8.13
2023-03-06T22:23:37.212Z,7.90
2023-03-06T22:26:05.401Z,9.10
2023-03-06T22:28:32.765Z,9.57
2023-03-06T22:31:04.107Z,8.93
2023-03-06T22:33:31.417Z,7.00
2023-03-06T22:36:05.306Z,7.80
2023-03-06T22:38:36.186Z,7.72
2023-03-06T22:41:03.943Z,8.00
2023-03-06T22:43:31.540Z,8.90
2023-03-06T22:46:03.131Z,6.75
2023-03-06T22:48:30.493Z,7.35
2023-03-06T22:51:02.002Z,7.15
2023-03-06T22:53:29.120Z,7.43
2023-03-06T22:55:58.922Z,7.43
2023-03-06T22:58:26.298Z,7.45
2023-03-06T23:00:53.644Z,6.32
2023-03-06T23:03:20.891Z,7.25
2023-03-06T23:05:48.099Z,11.30
2023-03-06T23:08:15.402Z,9.30
2023-03-06T23:10:42.711Z,9.70
2023-03-06T23:13:10.175Z,9.68
2023-03-06T23:15:37.470Z,12.63
2023-03-06T23:18:04.830Z,12.40
2023-03-06T23:20:32.075Z,13.10
2023-03-06T23:22:59.231Z,10.52
2023-03-06T23:25:26.412Z,10.50
2023-03-06T23:27:53.689Z,9.73
2023-03-06T23:30:20.988Z,9.10
2023-03-06T23:32:48.179Z,8.80
2023-03-06T23:35:15.640Z,9.52
2023-03-06T23:37:42.947Z,10.23
2023-03-06T23:40:10.737Z,6.68
2023-03-06T23:42:37.936Z,11.57
2023-03-06T23:45:05.359Z,9.88
2023-03-06T23:47:33.137Z,9.82
2023-03-06T23:50:00.356Z,10.77
2023-03-06T23:52:27.620Z,8.52
2023-03-06T23:54:54.835Z,9.95
2023-03-06T23:57:22.155Z,9.57
2023-03-06T23:59:49.287Z,9.90
